Kezdőlap
METAR-TAF:

METAR-TAF

Repülőterek :

Coatesville, Pennsylvania, Amerikai Egyesült Államok

földrajzi szélesség: 39-58-44N, földrajzi hosszúság: 075-51-56W, magasság: 201 m

Jelenlegi meteorológiai megfigyelések

A jelentés 11 perccel ezelõtt készült, 14:35 UTC
Északi szél 7 kt
Hőmérséklet 12°C
Páratartalom 54%
Légköri nyomás 1019 hPa
Látótávolság: 16.1 km
Derült ég

METAR: KMQS 061435Z AUTO 36007KT 10SM CLR 12/03 A3009 RMK AO2

Idő: 10:46 (14:46 UTC)


TAF: hiányzik

Meteorológiai megfigyelések és előrejelzések több, mint 4000 repülőtéren (METAR és TAF jelentéseket).

A térképen piros és sárga pontok jelzik az elérhető meteorológiai állomásokat.

Mozgassa az egeret a pont fölött, hogy megjelenjen az állomás neve.

Azután kattintson az időjárási megfigyelések és előrejelzések megtekintéséhez.

A térkép megváltoztatása: kattintson a fekete keresztel jelölt zöld gombra ráközelítéshez, a vonallal jelölt zöld gombra távolításhoz, vagy a zöld nyilakra a szomszédos térképek eléréséhez.


METAR-TAF: